Puget — AEQW — position and weather

sailwx.info

Track history (hours):
 
Tides and Currents Weather Stations Pressure Air Temp Water Temp Dewpoint Dewpoint Depression Visibility Wind Speed Wind Dir Waves Ship Positions

Puget

Last reported at 2014-Jul-21 19:10 UTC. Time now 2014-Jul-22 21:36 UTC.
Position N 47°39' W 122°21'.

Length 20 m; draft 0.2 m.

Type: Ship. MMSI: 369970510.

Date/timePositionNaut miles runAvg speedWind from/ knotsBaromVisibWave heightAir tempDewpointWater temp
2014-Jul-21 19:10N 47°39' W 122°21'4 4.2
2014-Jul-21 18:18N 47°37' W 122°17'5 2.0
2014-Jul-21 15:34N 47°40' W 122°23'  
2014-Jul-17 20:24N 47°40' W 122°24'0 0.2
2014-Jul-17 19:33N 47°40' W 122°24'0 0.0
2014-Jul-17 18:33N 47°40' W 122°24'1 1.2
2014-Jul-17 17:33N 47°41' W 122°25'8 7.6
2014-Jul-17 16:33N 47°48' W 122°24'9 8.6
2014-Jul-17 15:33N 47°56' W 122°20'5 0.3
2014-Jul-16 23:24N 47°60' W 122°13'1 1.7
2014-Jul-16 22:33N 47°59' W 122°15'7 7.5
2014-Jul-16 21:33N 47°54' W 122°23'8 7.9
2014-Jul-16 20:33N 47°58' W 122°33'3 0.8
2014-Jul-16 17:30N 47°60' W 122°36'7 7.7
2014-Jul-16 16:33N 47°55' W 122°27'7 6.9
2014-Jul-16 15:33N 47°58' W 122°18'4 3.9
2014-Jul-16 14:33N 47°60' W 122°13'0 0.0
2014-Jul-15 22:10N 47°60' W 122°13'3 4.2
2014-Jul-15 21:34N 47°59' W 122°17'8 7.8
2014-Jul-15 20:33N 48°05' W 122°26'1 0.4
2014-Jul-15 17:33N 48°04' W 122°24'6 6.3
2014-Jul-15 16:33N 47°59' W 122°19'3 3.2
2014-Jul-15 15:34N 47°59' W 122°14'1 1.0
2014-Jul-15 14:34N 47°60' W 122°13'0 0.0
2014-Jul-15 03:14N 47°60' W 122°13'3 5.0
2014-Jul-15 02:33N 48°02' W 122°17'1 1.5
2014-Jul-15 01:33N 48°01' W 122°16'2 0.8
2014-Jul-14 22:33N 47°59' W 122°14'4 3.6
2014-Jul-14 21:28N 48°03' W 122°17'1 1.0
2014-Jul-14 20:33N 48°03' W 122°18'2 1.6
2014-Jul-14 19:33N 48°02' W 122°18'6 6.3
2014-Jul-14 18:34N 47°56' W 122°20'7 6.5
2014-Jul-14 17:33N 47°49' W 122°24'9 8.9
2014-Jul-14 16:33N 47°41' W 122°25'1 1.3
2014-Jul-14 15:34N 47°40' W 122°23'  
Track history (hours):
 
Tides and Currents Weather Stations Pressure Air Temp Water Temp Dewpoint Dewpoint Depression Visibility Wind Speed Wind Dir Waves Ship Positions

Puget

Last reported at 2014-Jul-21 19:10 UTC. Time now 2014-Jul-22 21:36 UTC.
Position N 47°39' W 122°21'.

Length 20 m; draft 0.2 m.

Type: Ship. MMSI: 369970510.

Date/timePositionNaut miles runAvg speedWind from/ knotsBaromVisibWave heightAir tempDewpointWater temp
2014-Jul-21 19:10N 47°39' W 122°21'4 4.2
2014-Jul-21 18:18N 47°37' W 122°17'5 2.0
2014-Jul-21 15:34N 47°40' W 122°23'  
2014-Jul-17 20:24N 47°40' W 122°24'0 0.2
2014-Jul-17 19:33N 47°40' W 122°24'0 0.0
2014-Jul-17 18:33N 47°40' W 122°24'1 1.2
2014-Jul-17 17:33N 47°41' W 122°25'8 7.6
2014-Jul-17 16:33N 47°48' W 122°24'9 8.6
2014-Jul-17 15:33N 47°56' W 122°20'5 0.3
2014-Jul-16 23:24N 47°60' W 122°13'1 1.7
2014-Jul-16 22:33N 47°59' W 122°15'7 7.5
2014-Jul-16 21:33N 47°54' W 122°23'8 7.9
2014-Jul-16 20:33N 47°58' W 122°33'3 0.8
2014-Jul-16 17:30N 47°60' W 122°36'7 7.7
2014-Jul-16 16:33N 47°55' W 122°27'7 6.9
2014-Jul-16 15:33N 47°58' W 122°18'4 3.9
2014-Jul-16 14:33N 47°60' W 122°13'0 0.0
2014-Jul-15 22:10N 47°60' W 122°13'3 4.2
2014-Jul-15 21:34N 47°59' W 122°17'8 7.8
2014-Jul-15 20:33N 48°05' W 122°26'1 0.4
2014-Jul-15 17:33N 48°04' W 122°24'6 6.3
2014-Jul-15 16:33N 47°59' W 122°19'3 3.2
2014-Jul-15 15:34N 47°59' W 122°14'1 1.0
2014-Jul-15 14:34N 47°60' W 122°13'0 0.0
2014-Jul-15 03:14N 47°60' W 122°13'3 5.0
2014-Jul-15 02:33N 48°02' W 122°17'1 1.5
2014-Jul-15 01:33N 48°01' W 122°16'2 0.8
2014-Jul-14 22:33N 47°59' W 122°14'4 3.6
2014-Jul-14 21:28N 48°03' W 122°17'1 1.0
2014-Jul-14 20:33N 48°03' W 122°18'2 1.6
2014-Jul-14 19:33N 48°02' W 122°18'6 6.3
2014-Jul-14 18:34N 47°56' W 122°20'7 6.5
2014-Jul-14 17:33N 47°49' W 122°24'9 8.9
2014-Jul-14 16:33N 47°41' W 122°25'1 1.3
2014-Jul-14 15:34N 47°40' W 122°23'  

Dump ship's entire track history